Time;durP1;ratioP1;P1;durP2;ratioP2;P2;SDS_P1;SDS_P2;PMS_P1;PMS_P2;Temp;Humidity;BMP_temperature;BMP_pressure;BME280_temperature;BME280_humidity;BME280_pressure;Samples;Min_cycle;Max_cycle;Signal;HPM_P1;HPM_P2
2022/09/25 00:02:01;;;;;;;50.47;32.65;;;15.80;70.50;;;;;;4983847;28;20058;-57
2022/09/25 00:04:31;;;;;;;49.88;34.10;;;15.80;70.50;;;;;;4983111;28;20405;-52
2022/09/25 00:06:58;;;;;;;60.42;33.75;;;15.80;70.60;;;;;;4986192;28;20065;-58
2022/09/25 00:09:25;;;;;;;53.53;36.33;;;15.80;70.60;;;;;;4982277;28;20050;-57
2022/09/25 00:11:52;;;;;;;55.05;34.67;;;15.80;70.70;;;;;;4983588;28;20061;-57
2022/09/25 00:14:20;;;;;;;53.55;34.15;;;15.70;70.60;;;;;;4982849;28;20498;-50
2022/09/25 00:16:47;;;;;;;55.80;34.95;;;15.80;70.70;;;;;;4975902;28;20062;-57
2022/09/25 00:22:06;;;;;;;51.72;34.60;;;15.70;70.90;;;;;;4982316;28;20061;-52
2022/09/25 00:24:34;;;;;;;53.55;35.10;;;15.70;71.00;;;;;;4979050;28;20410;-56
2022/09/25 00:27:02;;;;;;;56.45;36.22;;;15.70;71.20;;;;;;4981923;28;20058;-58
2022/09/25 00:29:29;;;;;;;54.47;36.03;;;15.70;71.30;;;;;;4978478;28;20494;-58
2022/09/25 00:31:57;;;;;;;54.88;35.90;;;15.70;71.40;;;;;;4980772;28;20392;-58
2022/09/25 00:34:24;;;;;;;60.00;36.97;;;15.70;71.50;;;;;;4981333;28;20077;-54
2022/09/25 00:36:52;;;;;;;61.38;37.72;;;15.60;71.60;;;;;;4980205;28;20450;-57
2022/09/25 00:39:21;;;;;;;56.55;37.42;;;15.60;71.70;;;;;;4981680;28;20054;-58
2022/09/25 00:41:48;;;;;;;55.45;36.95;;;15.60;72.00;;;;;;4981635;28;20068;-58
2022/09/25 00:44:51;;;;;;;60.75;37.88;;;15.60;72.00;;;;;;4980452;28;20614;-58
2022/09/25 00:47:20;;;;;;;62.47;37.35;;;15.50;72.30;;;;;;4980127;28;20069;-58
2022/09/25 00:49:48;;;;;;;61.35;40.60;;;15.50;72.30;;;;;;4981946;28;20057;-57
2022/09/25 00:52:16;;;;;;;61.42;38.35;;;15.40;72.50;;;;;;4982304;28;20065;-58
2022/09/25 00:54:48;;;;;;;57.17;36.47;;;15.40;72.60;;;;;;4982811;28;20063;-55
2022/09/25 00:57:20;;;;;;;64.35;38.63;;;15.40;72.90;;;;;;4980143;28;20061;-58
2022/09/25 00:59:50;;;;;;;54.97;35.15;;;15.40;73.10;;;;;;4981341;28;20054;-58
2022/09/25 01:02:27;;;;;;;54.25;36.47;;;15.40;73.20;;;;;;4980218;28;20051;-45
2022/09/25 01:04:56;;;;;;;60.17;37.40;;;15.40;73.30;;;;;;4979710;28;20425;-52
2022/09/25 01:07:23;;;;;;;62.25;36.47;;;15.40;73.30;;;;;;4986185;28;20062;-44
2022/09/25 01:09:53;;;;;;;55.40;37.28;;;15.40;73.40;;;;;;4980909;28;20046;-48
2022/09/25 01:12:21;;;;;;;57.20;37.03;;;15.40;73.40;;;;;;4984530;28;20498;-48
2022/09/25 01:14:48;;;;;;;59.22;37.33;;;15.30;73.30;;;;;;4983657;28;20069;-46
2022/09/25 01:17:21;;;;;;;53.35;36.47;;;15.30;73.40;;;;;;4979466;28;20058;-47
2022/09/25 01:20:00;;;;;;;57.75;38.53;;;15.30;73.60;;;;;;4981926;28;20063;-46
2022/09/25 01:22:40;;;;;;;55.50;36.35;;;15.30;73.60;;;;;;4984787;28;20148;-49
2022/09/25 01:25:18;;;;;;;55.58;35.97;;;15.30;73.60;;;;;;4982486;28;20067;-47
2022/09/25 01:28:04;;;;;;;50.60;33.58;;;15.30;73.60;;;;;;4982370;28;20050;-50
2022/09/25 01:30:38;;;;;;;50.55;33.85;;;15.30;73.70;;;;;;4983099;28;20425;-44
2022/09/25 01:33:10;;;;;;;55.73;36.23;;;15.30;73.70;;;;;;4983239;28;20418;-50
2022/09/25 01:35:47;;;;;;;60.97;36.47;;;15.30;73.70;;;;;;4980390;28;20065;-50
2022/09/25 01:38:23;;;;;;;57.00;36.95;;;15.30;73.90;;;;;;4975837;28;20050;-47
2022/09/25 01:40:58;;;;;;;61.10;37.75;;;15.20;73.90;;;;;;4985429;28;20743;-47
2022/09/25 01:43:30;;;;;;;58.30;35.28;;;15.20;73.90;;;;;;4983427;28;20054;-46
2022/09/25 01:46:01;;;;;;;57.70;36.90;;;15.20;74.00;;;;;;4977361;28;20415;-46
2022/09/25 01:48:32;;;;;;;50.13;34.85;;;15.20;74.10;;;;;;4982275;28;20050;-47
2022/09/25 01:51:02;;;;;;;52.47;35.05;;;15.20;74.10;;;;;;4983145;28;20398;-46
2022/09/25 01:53:33;;;;;;;59.50;36.85;;;15.20;74.30;;;;;;4984602;28;20054;-47
2022/09/25 01:56:05;;;;;;;60.53;38.15;;;15.20;74.40;;;;;;4964462;28;20058;-49
2022/09/25 01:58:36;;;;;;;62.10;38.38;;;15.20;74.40;;;;;;4984686;28;20050;-49
2022/09/25 02:01:10;;;;;;;56.15;36.25;;;15.20;74.50;;;;;;4983722;28;20494;-45
2022/09/25 02:03:42;;;;;;;61.13;39.28;;;15.20;74.50;;;;;;4985263;28;20062;-45
2022/09/25 02:06:16;;;;;;;58.40;37.92;;;15.20;74.50;;;;;;4978968;28;20529;-58
2022/09/25 02:08:47;;;;;;;53.53;35.97;;;15.10;74.50;;;;;;4982077;28;20054;-54
2022/09/25 02:11:15;;;;;;;57.42;35.45;;;15.20;74.70;;;;;;4984385;28;20477;-57
2022/09/25 02:13:47;;;;;;;95.93;37.85;;;15.20;74.70;;;;;;4983859;28;20065;-58
2022/09/25 02:16:19;;;;;;;78.07;38.65;;;15.10;74.70;;;;;;4979147;28;20058;-57
2022/09/25 02:21:42;;;;;;;58.33;35.03;;;15.10;74.90;;;;;;4991612;28;20057;-51
2022/09/25 02:24:19;;;;;;;67.35;37.47;;;15.10;75.00;;;;;;4981904;28;20406;-57
2022/09/25 02:26:47;;;;;;;61.53;36.42;;;15.10;75.10;;;;;;4982615;28;20054;-58
2022/09/25 02:29:15;;;;;;;53.78;35.53;;;15.10;75.00;;;;;;4984419;28;20054;-58
2022/09/25 02:31:48;;;;;;;58.15;37.53;;;15.10;75.10;;;;;;4982437;28;20506;-57
2022/09/25 02:34:15;;;;;;;54.85;35.83;;;15.00;75.10;;;;;;4982574;28;20505;-57
2022/09/25 02:36:43;;;;;;;62.90;36.58;;;15.00;75.10;;;;;;4983238;28;20062;-55
2022/09/25 02:39:13;;;;;;;56.95;36.13;;;15.00;75.20;;;;;;4982363;28;20091;-59
2022/09/25 02:41:52;;;;;;;77.35;37.00;;;15.00;75.30;;;;;;4983138;28;20050;-57
2022/09/25 02:44:31;;;;;;;56.22;35.80;;;15.00;75.40;;;;;;4979403;28;20498;-55
2022/09/25 02:47:11;;;;;;;60.15;35.40;;;15.00;75.40;;;;;;4981072;28;20058;-55
2022/09/25 02:49:48;;;;;;;59.88;36.85;;;15.00;75.40;;;;;;4984846;28;20508;-60
2022/09/25 02:52:24;;;;;;;53.03;34.42;;;15.00;75.50;;;;;;4983170;28;21867;-58
2022/09/25 02:54:56;;;;;;;59.05;35.05;;;14.90;75.50;;;;;;4979238;28;20050;-58
2022/09/25 02:57:36;;;;;;;53.58;34.60;;;14.90;75.60;;;;;;4983722;28;20046;-57
2022/09/25 03:00:06;;;;;;;90.75;35.28;;;14.90;75.80;;;;;;4981607;28;20426;-55
2022/09/25 03:02:37;;;;;;;58.33;34.40;;;14.90;76.00;;;;;;4984047;28;20069;-57
2022/09/25 03:05:07;;;;;;;54.80;34.30;;;14.90;76.00;;;;;;4980464;28;20061;-58
2022/09/25 03:08:36;;;;;;;53.22;33.40;;;14.90;76.10;;;;;;4984980;28;20051;-58
2022/09/25 03:10:22;;;;;;;47.67;30.80;;;14.90;76.20;;;;;;4979509;28;20061;-55
2022/09/25 03:12:49;;;;;;;52.72;33.88;;;14.90;76.20;;;;;;4983703;28;20054;-58
2022/09/25 03:15:17;;;;;;;55.03;34.05;;;14.90;76.20;;;;;;4979000;28;20422;-58
2022/09/25 03:17:47;;;;;;;61.05;35.25;;;14.90;76.30;;;;;;4984388;28;20065;-57
2022/09/25 03:20:14;;;;;;;49.88;32.70;;;14.90;76.30;;;;;;4982165;28;20062;-55
2022/09/25 03:22:41;;;;;;;53.35;33.65;;;14.90;76.20;;;;;;4982643;28;20076;-58
2022/09/25 03:25:09;;;;;;;47.75;30.90;;;14.90;76.20;;;;;;4977359;28;20414;-59
2022/09/25 03:27:36;;;;;;;52.05;31.58;;;14.80;76.30;;;;;;4982410;28;20054;-57
2022/09/25 03:30:04;;;;;;;49.90;31.83;;;14.80;76.40;;;;;;4982032;28;20054;-53
2022/09/25 03:32:31;;;;;;;53.83;32.70;;;14.80;76.40;;;;;;4983915;28;20058;-56
2022/09/25 03:34:59;;;;;;;68.60;30.75;;;14.80;76.50;;;;;;4981400;28;20414;-55
2022/09/25 03:37:26;;;;;;;53.88;33.55;;;14.80;76.50;;;;;;4983355;28;20061;-58
2022/09/25 03:39:54;;;;;;;55.85;32.95;;;14.80;76.50;;;;;;4983676;28;20050;-58
2022/09/25 03:42:21;;;;;;;67.75;33.42;;;14.80;76.40;;;;;;4982835;28;21038;-57
2022/09/25 03:44:48;;;;;;;50.03;32.25;;;14.80;76.40;;;;;;4979728;28;20061;-58
2022/09/25 03:47:15;;;;;;;50.15;32.03;;;14.90;76.60;;;;;;4979029;28;20069;-57
2022/09/25 03:49:42;;;;;;;64.90;35.13;;;14.80;76.40;;;;;;4982227;28;20061;-57
2022/09/25 03:52:13;;;;;;;60.95;35.08;;;14.80;76.50;;;;;;4980617;28;20062;-58
2022/09/25 03:54:40;;;;;;;62.67;37.13;;;14.80;76.60;;;;;;4980736;28;20065;-58
2022/09/25 03:57:07;;;;;;;55.90;35.35;;;14.80;76.60;;;;;;4979063;28;20442;-56
2022/09/25 03:59:34;;;;;;;56.13;36.15;;;14.80;76.60;;;;;;4982156;28;20050;-58
2022/09/25 04:02:02;;;;;;;58.00;34.45;;;14.80;76.70;;;;;;4982176;28;20058;-58
2022/09/25 04:04:29;;;;;;;60.78;35.40;;;14.80;76.80;;;;;;4981607;28;20054;-58
2022/09/25 04:06:56;;;;;;;65.00;37.70;;;14.80;76.90;;;;;;4977354;28;20054;-58
2022/09/25 04:09:25;;;;;;;64.78;37.25;;;14.80;76.70;;;;;;4978302;28;20057;-58
2022/09/25 04:11:54;;;;;;;64.88;35.75;;;14.80;76.70;;;;;;4982306;28;20410;-57
2022/09/25 04:14:21;;;;;;;62.47;37.88;;;14.80;76.70;;;;;;4979997;28;20077;-56
2022/09/25 04:16:48;;;;;;;63.55;37.60;;;14.80;76.70;;;;;;4974844;28;20057;-56
2022/09/25 04:19:16;;;;;;;59.55;36.15;;;14.80;76.70;;;;;;4981045;28;20046;-56
2022/09/25 04:21:43;;;;;;;55.95;34.97;;;14.80;76.70;;;;;;4980479;28;20050;-56
2022/09/25 04:26:56;;;;;;;76.65;37.83;;;14.80;76.90;;;;;;4986884;28;20069;-58
2022/09/25 04:29:24;;;;;;;72.80;38.58;;;14.80;77.00;;;;;;4978965;28;20414;-58
2022/09/25 04:34:33;;;;;;;54.42;33.75;;;14.70;77.20;;;;;;4982817;28;20049;-57
2022/09/25 04:37:01;;;;;;;75.13;38.58;;;14.70;77.30;;;;;;4980700;28;20506;-57
2022/09/25 04:39:28;;;;;;;55.85;34.75;;;14.70;77.40;;;;;;4986324;28;20084;-58
2022/09/25 04:41:56;;;;;;;64.07;36.65;;;14.70;77.40;;;;;;4986619;28;20058;-58
2022/09/25 04:44:24;;;;;;;65.68;36.83;;;14.70;77.40;;;;;;4983139;28;20046;-57
2022/09/25 04:46:51;;;;;;;58.95;36.85;;;14.70;77.40;;;;;;4985236;28;20453;-57
2022/09/25 04:49:18;;;;;;;61.30;36.03;;;14.70;77.50;;;;;;4984785;28;20422;-57
2022/09/25 04:51:46;;;;;;;61.70;36.60;;;14.70;77.40;;;;;;4983541;28;20953;-57
2022/09/25 04:54:13;;;;;;;54.08;33.97;;;14.70;77.40;;;;;;4986105;28;20058;-58
2022/09/25 04:56:42;;;;;;;64.43;36.88;;;14.70;77.40;;;;;;4985432;28;21416;-58
2022/09/25 04:59:11;;;;;;;57.90;35.13;;;14.60;77.50;;;;;;4985806;28;20062;-57
2022/09/25 05:01:38;;;;;;;60.33;36.25;;;14.70;77.50;;;;;;4985654;28;20061;-59
2022/09/25 05:04:05;;;;;;;61.75;34.92;;;14.60;77.50;;;;;;4984560;28;20058;-57
2022/09/25 05:06:33;;;;;;;54.92;32.83;;;14.70;77.50;;;;;;4985214;28;20058;-58
2022/09/25 05:09:02;;;;;;;56.05;33.35;;;14.70;77.50;;;;;;4985765;28;20054;-55
2022/09/25 05:11:29;;;;;;;52.20;31.50;;;14.70;77.40;;;;;;4980983;28;20406;-56
2022/09/25 05:13:56;;;;;;;52.88;32.38;;;14.60;77.20;;;;;;4983561;28;20058;-57
2022/09/25 05:16:27;;;;;;;54.30;32.95;;;14.60;77.00;;;;;;4984421;28;20061;-57
2022/09/25 05:18:55;;;;;;;51.25;30.85;;;14.60;76.90;;;;;;4985412;28;20073;-54
2022/09/25 05:21:23;;;;;;;47.05;29.80;;;14.60;76.80;;;;;;4983593;28;20391;-56
2022/09/25 05:23:50;;;;;;;47.35;30.35;;;14.60;76.80;;;;;;4986634;28;20054;-55
2022/09/25 05:26:17;;;;;;;47.67;30.33;;;14.60;76.80;;;;;;4979422;28;20046;-58
2022/09/25 05:28:48;;;;;;;52.92;32.47;;;14.60;76.80;;;;;;4980101;28;20060;-56
2022/09/25 05:31:15;;;;;;;56.05;30.35;;;14.60;76.90;;;;;;4985081;28;22232;-57
2022/09/25 05:33:43;;;;;;;62.75;31.50;;;14.60;77.10;;;;;;4982631;28;20062;-58
2022/09/25 05:36:11;;;;;;;55.72;32.05;;;14.60;77.10;;;;;;4979785;28;20054;-56
2022/09/25 05:38:40;;;;;;;56.75;32.20;;;14.60;77.20;;;;;;4979725;28;20059;-57
2022/09/25 05:41:09;;;;;;;51.90;31.60;;;14.60;77.10;;;;;;4985549;28;20054;-57
2022/09/25 05:43:40;;;;;;;54.03;30.83;;;14.60;77.20;;;;;;4984624;28;20053;-57
2022/09/25 05:46:07;;;;;;;51.45;29.77;;;14.60;77.20;;;;;;4978047;28;20054;-58
2022/09/25 05:48:35;;;;;;;49.60;28.55;;;14.60;77.10;;;;;;4982805;28;20049;-58
2022/09/25 05:51:04;;;;;;;47.25;28.95;;;14.50;77.00;;;;;;4984844;28;20494;-58
2022/09/25 05:53:31;;;;;;;45.47;27.08;;;14.60;76.90;;;;;;4979606;28;20399;-57
2022/09/25 05:56:01;;;;;;;52.58;26.88;;;14.60;76.80;;;;;;4980724;28;20422;-58
2022/09/25 05:58:30;;;;;;;46.75;27.42;;;14.50;76.70;;;;;;4983866;28;20077;-57
2022/09/25 06:01:00;;;;;;;44.97;25.90;;;14.50;76.80;;;;;;4981218;28;20395;-53
2022/09/25 06:03:28;;;;;;;48.40;25.38;;;14.60;76.80;;;;;;4981900;28;20054;-58
2022/09/25 06:05:55;;;;;;;38.70;24.60;;;14.60;76.90;;;;;;4984089;28;20050;-58
2022/09/25 06:08:24;;;;;;;42.65;24.42;;;14.50;76.80;;;;;;4983714;28;20061;-57
2022/09/25 06:10:54;;;;;;;48.72;24.05;;;14.60;76.80;;;;;;4982429;28;20503;-49
2022/09/25 06:13:23;;;;;;;36.85;22.60;;;14.60;76.80;;;;;;4982257;28;20054;-56
2022/09/25 06:15:51;;;;;;;41.90;23.50;;;14.60;76.80;;;;;;4982850;28;20402;-57
2022/09/25 06:18:20;;;;;;;38.65;24.20;;;14.60;76.80;;;;;;4985349;28;20058;-58
2022/09/25 06:20:48;;;;;;;42.75;22.83;;;14.60;76.60;;;;;;4981363;28;20046;-57
2022/09/25 06:23:15;;;;;;;42.15;21.92;;;14.60;76.50;;;;;;4985841;28;20414;-57
2022/09/25 06:25:44;;;;;;;34.20;19.83;;;14.60;76.40;;;;;;4981683;28;20077;-58
2022/09/25 06:28:11;;;;;;;39.53;22.60;;;14.70;76.50;;;;;;4981586;28;20054;-57
2022/09/25 06:30:39;;;;;;;32.00;20.00;;;14.70;76.40;;;;;;4976622;28;20502;-58
2022/09/25 06:33:11;;;;;;;36.10;21.15;;;14.70;76.40;;;;;;4984311;28;20058;-58
2022/09/25 06:35:42;;;;;;;31.85;18.52;;;14.70;76.20;;;;;;4978616;28;20050;-55
2022/09/25 06:38:15;;;;;;;30.15;17.75;;;14.80;76.20;;;;;;4977957;28;20054;-59
2022/09/25 06:40:44;;;;;;;30.33;18.60;;;14.80;76.10;;;;;;4981004;28;20057;-58
2022/09/25 06:43:16;;;;;;;39.38;18.75;;;14.80;76.00;;;;;;4977184;28;20601;-57
2022/09/25 06:45:43;;;;;;;33.65;18.83;;;14.80;76.00;;;;;;4979771;28;20054;-58
2022/09/25 06:48:12;;;;;;;30.05;17.17;;;14.80;75.90;;;;;;4982891;28;20050;-56
2022/09/25 06:50:42;;;;;;;31.85;18.10;;;14.80;75.70;;;;;;4978564;28;20054;-57
2022/09/25 06:53:10;;;;;;;34.17;18.05;;;14.80;75.60;;;;;;4978002;28;20073;-51
2022/09/25 06:55:38;;;;;;;27.08;17.10;;;14.80;75.40;;;;;;4980813;28;20505;-57
2022/09/25 06:58:08;;;;;;;29.80;17.00;;;14.80;75.50;;;;;;4979061;28;20478;-54
2022/09/25 07:00:35;;;;;;;29.90;17.05;;;14.90;75.70;;;;;;4977365;28;20074;-54
2022/09/25 07:05:48;;;;;;;28.83;13.93;;;14.90;75.70;;;;;;4980681;28;20054;-57
2022/09/25 07:08:17;;;;;;;25.67;14.35;;;14.90;75.60;;;;;;4979730;28;20079;-58
2022/09/25 07:10:48;;;;;;;25.60;14.43;;;14.90;75.60;;;;;;4982433;28;20058;-58
2022/09/25 07:13:17;;;;;;;25.70;14.30;;;14.90;75.50;;;;;;4983680;28;20058;-57
2022/09/25 07:15:50;;;;;;;26.02;13.80;;;14.90;75.40;;;;;;4978162;28;20050;-58
2022/09/25 07:18:17;;;;;;;28.88;13.88;;;14.90;75.30;;;;;;4979214;28;20406;-53
2022/09/25 07:20:45;;;;;;;29.30;14.32;;;14.90;75.10;;;;;;4982963;28;20225;-56
2022/09/25 07:23:13;;;;;;;30.52;13.57;;;14.90;75.00;;;;;;4980026;28;20406;-58
2022/09/25 07:25:40;;;;;;;26.73;12.85;;;14.90;74.90;;;;;;4979070;28;20054;-58
2022/09/25 07:28:08;;;;;;;25.95;12.23;;;14.80;74.60;;;;;;4980500;28;20065;-58
2022/09/25 07:30:36;;;;;;;24.38;11.10;;;14.80;74.60;;;;;;4981094;28;20517;-57
2022/09/25 07:33:04;;;;;;;18.20;10.95;;;14.80;74.50;;;;;;4984477;28;20050;-58
2022/09/25 07:35:31;;;;;;;25.25;11.95;;;14.80;74.50;;;;;;4979776;28;20057;-56
2022/09/25 07:37:58;;;;;;;29.98;11.32;;;14.70;74.30;;;;;;4982148;28;20058;-58
2022/09/25 07:40:27;;;;;;;26.85;11.18;;;14.70;74.40;;;;;;4984122;28;20054;-57
2022/09/25 07:42:59;;;;;;;33.38;11.85;;;14.80;74.40;;;;;;4983279;28;20067;-58
2022/09/25 07:45:27;;;;;;;26.65;11.52;;;14.80;74.40;;;;;;4980562;28;20516;-58
2022/09/25 07:47:57;;;;;;;20.08;10.20;;;14.70;74.30;;;;;;4975775;28;20058;-56
2022/09/25 07:50:25;;;;;;;42.45;10.52;;;14.70;74.20;;;;;;4982454;28;20400;-58
2022/09/25 07:52:53;;;;;;;26.48;10.75;;;14.70;74.20;;;;;;4983979;28;20411;-56
2022/09/25 07:55:21;;;;;;;21.13;10.20;;;14.70;74.20;;;;;;4980263;28;20054;-59
2022/09/25 07:57:49;;;;;;;27.15;11.25;;;14.70;74.40;;;;;;4982877;28;20065;-58
2022/09/25 08:00:17;;;;;;;24.55;12.20;;;14.70;74.50;;;;;;4981945;28;20058;-58
2022/09/25 08:02:44;;;;;;;26.05;11.70;;;14.70;74.60;;;;;;4981680;28;20517;-58
2022/09/25 08:05:14;;;;;;;26.65;12.65;;;14.70;74.70;;;;;;4982137;28;21453;-59
2022/09/25 08:07:41;;;;;;;24.27;12.15;;;14.70;74.70;;;;;;4982142;28;20054;-58
2022/09/25 08:10:08;;;;;;;20.00;10.98;;;14.70;74.70;;;;;;4982990;28;20058;-58
2022/09/25 08:12:35;;;;;;;30.63;13.32;;;14.70;74.70;;;;;;4983197;28;20510;-58
2022/09/25 08:15:03;;;;;;;29.70;12.43;;;14.80;75.00;;;;;;4982123;28;20058;-58
2022/09/25 08:17:30;;;;;;;31.85;13.13;;;14.80;75.00;;;;;;4982652;28;20062;-58
2022/09/25 08:19:58;;;;;;;21.33;11.60;;;14.70;75.00;;;;;;4983518;28;20062;-58
2022/09/25 08:22:26;;;;;;;21.45;12.35;;;14.80;74.90;;;;;;4981786;28;20054;-60
2022/09/25 08:24:54;;;;;;;28.13;13.18;;;14.80;74.60;;;;;;4983039;28;20061;-58
2022/09/25 08:27:21;;;;;;;25.40;12.77;;;14.70;74.30;;;;;;4980985;28;20057;-59
2022/09/25 08:29:48;;;;;;;22.70;10.35;;;14.70;74.50;;;;;;4982704;28;20065;-62
2022/09/25 08:32:15;;;;;;;28.80;11.23;;;14.70;74.60;;;;;;4981372;28;20062;-57
2022/09/25 08:34:43;;;;;;;22.13;10.60;;;14.70;74.30;;;;;;4982094;28;20050;-60
2022/09/25 08:37:10;;;;;;;20.67;10.40;;;14.80;74.50;;;;;;4981828;28;20050;-58
2022/09/25 08:39:39;;;;;;;19.85;9.65;;;14.80;74.70;;;;;;4981650;28;20054;-58
2022/09/25 08:42:06;;;;;;;22.77;9.32;;;14.80;74.50;;;;;;4979640;28;20499;-58
2022/09/25 08:44:38;;;;;;;21.83;8.93;;;14.80;74.40;;;;;;4981373;28;20498;-57
2022/09/25 08:50:04;;;;;;;19.48;7.40;;;14.90;74.20;;;;;;4987733;28;20053;-58
2022/09/25 08:52:32;;;;;;;21.75;8.40;;;14.90;73.90;;;;;;4982094;28;20061;-58
2022/09/25 08:55:00;;;;;;;15.57;7.53;;;14.90;73.80;;;;;;4981207;28;20054;-57
2022/09/25 08:57:33;;;;;;;27.08;7.85;;;14.90;73.50;;;;;;4980623;28;20053;-57
2022/09/25 09:00:05;;;;;;;19.65;7.47;;;14.90;73.60;;;;;;4981634;28;20054;-58
2022/09/25 09:02:39;;;;;;;22.52;7.38;;;14.90;73.50;;;;;;4982408;28;20053;-57
2022/09/25 09:05:17;;;;;;;23.23;7.70;;;14.90;73.80;;;;;;4980302;28;20058;-60
2022/09/25 09:07:50;;;;;;;17.70;6.78;;;14.90;73.30;;;;;;4981026;28;20061;-56
2022/09/25 09:10:28;;;;;;;20.45;7.25;;;14.80;72.60;;;;;;4982871;28;20066;-60
2022/09/25 09:13:00;;;;;;;18.25;7.43;;;14.90;72.70;;;;;;4982155;28;20077;-56
2022/09/25 09:15:33;;;;;;;16.67;6.57;;;14.90;72.70;;;;;;4980006;28;20054;-58
2022/09/25 09:18:09;;;;;;;18.13;7.03;;;14.90;73.00;;;;;;4983293;28;20061;-60
2022/09/25 09:20:43;;;;;;;18.42;6.45;;;14.90;73.00;;;;;;4983007;28;20055;-61
2022/09/25 09:23:18;;;;;;;18.25;6.53;;;14.90;73.10;;;;;;4980920;28;20050;-62
2022/09/25 09:25:54;;;;;;;19.67;6.90;;;14.90;73.30;;;;;;4983520;28;20087;-58
2022/09/25 09:28:59;;;;;;;17.88;6.15;;;15.00;73.40;;;;;;4984595;28;20062;-58
2022/09/25 09:31:33;;;;;;;23.60;6.25;;;15.00;73.00;;;;;;4985124;28;20046;-60
2022/09/25 09:34:14;;;;;;;22.40;6.13;;;15.10;72.30;;;;;;4985139;28;20051;-59
2022/09/25 09:36:49;;;;;;;20.73;6.95;;;15.10;71.60;;;;;;4984360;28;20058;-59
2022/09/25 09:39:23;;;;;;;17.38;5.80;;;15.10;71.60;;;;;;4985276;28;20085;-59
2022/09/25 09:42:00;;;;;;;20.35;6.85;;;15.10;72.10;;;;;;4985511;28;20506;-58
2022/09/25 09:44:41;;;;;;;17.10;5.60;;;15.10;71.50;;;;;;4984421;28;20058;-57
2022/09/25 09:47:21;;;;;;;28.85;5.53;;;15.10;70.60;;;;;;4981396;28;20054;-59
2022/09/25 09:49:51;;;;;;;17.95;5.88;;;15.10;70.80;;;;;;4984489;28;20064;-60
2022/09/25 09:52:22;;;;;;;20.60;6.40;;;15.10;69.80;;;;;;4985351;28;20054;-59
2022/09/25 09:54:55;;;;;;;14.82;5.53;;;15.10;69.50;;;;;;4985672;28;20054;-59
2022/09/25 09:57:26;;;;;;;16.42;5.00;;;15.10;69.60;;;;;;4985033;28;20061;-57
2022/09/25 09:59:58;;;;;;;18.77;5.75;;;15.10;68.90;;;;;;4985623;28;20050;-59
2022/09/25 10:02:32;;;;;;;13.25;5.20;;;15.10;68.40;;;;;;4984210;28;20411;-55
2022/09/25 10:05:04;;;;;;;17.17;5.75;;;15.10;67.90;;;;;;4984984;28;20054;-57
2022/09/25 10:07:35;;;;;;;21.05;6.13;;;15.20;68.40;;;;;;4983772;28;20054;-59
2022/09/25 10:10:11;;;;;;;20.02;5.95;;;15.10;68.00;;;;;;4984833;28;20077;-59
2022/09/25 10:12:43;;;;;;;14.18;6.35;;;15.20;68.70;;;;;;4985234;28;20054;-59
2022/09/25 10:15:17;;;;;;;18.98;7.07;;;15.20;69.10;;;;;;4982833;28;20064;-58
2022/09/25 10:17:44;;;;;;;;;;;15.30;68.70;;;;;;4984644;28;20061;-56
2022/09/25 10:20:17;;;;;;;19.23;5.95;;;15.30;67.70;;;;;;4983617;28;20389;-57
2022/09/25 10:22:46;;;;;;;28.55;8.55;;;15.30;68.30;;;;;;4985053;28;20050;-58
2022/09/25 10:25:13;;;;;;;18.77;7.38;;;15.40;68.60;;;;;;4984733;28;20054;-57
2022/09/25 10:27:44;;;;;;;11.73;7.00;;;15.50;68.10;;;;;;4984018;28;20428;-59
2022/09/25 10:30:19;;;;;;;20.88;7.55;;;15.50;67.70;;;;;;4984043;28;20062;-58
2022/09/25 10:32:55;;;;;;;;;;;15.50;67.50;;;;;;4985343;28;20494;-57
2022/09/25 10:35:26;;;;;;;19.25;8.23;;;15.60;67.60;;;;;;4982505;28;19922;-56
2022/09/25 10:37:55;;;;;;;19.48;7.45;;;15.60;66.60;;;;;;4984811;28;20050;-59
2022/09/25 10:40:26;;;;;;;22.88;7.93;;;15.60;66.20;;;;;;4984276;28;20058;-57
2022/09/25 10:43:19;;;;;;;24.85;7.60;;;15.60;65.30;;;;;;4984899;28;21522;-59
2022/09/25 10:45:48;;;;;;;21.55;8.10;;;15.60;65.60;;;;;;4980544;28;20055;-58
2022/09/25 10:51:16;;;;;;;20.95;8.30;;;15.70;65.20;;;;;;4990163;28;20080;-58
2022/09/25 10:53:44;;;;;;;15.98;7.55;;;15.70;64.50;;;;;;4983782;28;20395;-58
2022/09/25 10:56:15;;;;;;;19.20;7.38;;;15.70;64.80;;;;;;4982241;28;20046;-59
2022/09/25 10:58:49;;;;;;;13.05;6.80;;;15.70;64.80;;;;;;4983501;28;20070;-54
2022/09/25 11:01:16;;;;;;;17.88;7.32;;;15.80;65.20;;;;;;4983408;28;20058;-59
2022/09/25 11:03:53;;;;;;;20.95;6.53;;;15.80;64.70;;;;;;4983402;28;20054;-57
2022/09/25 11:06:24;;;;;;;24.33;7.25;;;15.90;63.80;;;;;;4982471;28;20054;-58
2022/09/25 11:09:02;;;;;;;12.68;5.65;;;15.90;63.30;;;;;;4982583;28;20065;-58
2022/09/25 11:11:29;;;;;;;21.98;5.88;;;16.00;63.60;;;;;;4983815;28;20062;-59
2022/09/25 11:14:00;;;;;;;14.13;4.78;;;16.00;62.50;;;;;;4983058;28;20054;-59
2022/09/25 11:16:47;;;;;;;13.50;4.15;;;16.00;60.80;;;;;;4980983;28;20057;-58
2022/09/25 11:19:19;;;;;;;12.57;3.67;;;16.10;61.80;;;;;;4983682;28;20073;-58
2022/09/25 11:21:55;;;;;;;15.82;4.70;;;16.20;61.30;;;;;;4983821;28;20058;-60
2022/09/25 11:24:29;;;;;;;13.50;3.38;;;16.20;59.40;;;;;;4980716;28;20054;-61
2022/09/25 11:27:03;;;;;;;8.65;3.45;;;16.20;58.90;;;;;;4981199;28;20058;-59
2022/09/25 11:29:43;;;;;;;13.25;3.58;;;16.30;59.90;;;;;;4982965;28;20387;-55
2022/09/25 11:32:19;;;;;;;7.13;2.90;;;16.30;60.20;;;;;;4982274;28;20058;-58
2022/09/25 11:35:06;;;;;;;10.88;3.00;;;16.40;60.80;;;;;;4979937;28;20483;-57
2022/09/25 11:37:39;;;;;;;9.30;2.70;;;16.40;60.00;;;;;;4983264;28;20058;-58
2022/09/25 11:43:15;;;;;;;9.98;1.70;;;16.50;58.90;;;;;;4988476;28;20505;-59
2022/09/25 11:45:48;;;;;;;7.63;1.95;;;16.50;57.50;;;;;;4980881;28;20100;-58
2022/09/25 11:48:22;;;;;;;11.07;1.50;;;16.50;56.80;;;;;;4981285;28;20630;-59
2022/09/25 11:50:57;;;;;;;12.73;1.60;;;16.50;57.10;;;;;;4983045;28;20069;-59
2022/09/25 11:53:34;;;;;;;7.88;1.55;;;16.50;55.70;;;;;;4982425;28;20053;-59
2022/09/25 11:56:16;;;;;;;8.18;1.20;;;16.60;56.60;;;;;;4982447;28;20505;-60
2022/09/25 11:58:57;;;;;;;6.18;1.52;;;16.60;55.20;;;;;;4983069;28;20066;-60
2022/09/25 12:01:33;;;;;;;11.90;1.50;;;16.60;55.30;;;;;;4980262;28;20050;-60
2022/09/25 12:04:37;;;;;;;6.72;1.30;;;16.60;55.60;;;;;;4982722;28;20402;-58
2022/09/25 12:07:26;;;;;;;5.93;1.33;;;16.60;55.10;;;;;;4980853;28;20513;-60
2022/09/25 12:10:22;;;;;;;7.30;1.52;;;16.60;54.20;;;;;;4983138;28;20609;-59
2022/09/25 12:12:58;;;;;;;9.15;1.50;;;16.60;54.70;;;;;;4981561;28;20426;-59
2022/09/25 12:15:42;;;;;;;4.95;1.08;;;16.60;54.10;;;;;;4979793;28;20455;-59
2022/09/25 12:18:20;;;;;;;8.25;1.70;;;16.70;55.20;;;;;;4983362;28;20517;-59
2022/09/25 12:20:55;;;;;;;14.88;2.03;;;16.70;54.70;;;;;;4982015;28;20055;-58
2022/09/25 12:23:32;;;;;;;6.47;1.17;;;16.70;54.70;;;;;;4982152;28;20055;-59
2022/09/25 12:26:13;;;;;;;5.72;1.10;;;16.70;53.40;;;;;;4982351;28;20085;-59
2022/09/25 12:28:54;;;;;;;7.25;1.40;;;16.70;53.60;;;;;;4980826;28;20070;-60
2022/09/25 12:31:30;;;;;;;12.93;1.50;;;16.70;53.60;;;;;;4982004;28;20062;-60
2022/09/25 12:34:08;;;;;;;6.63;1.40;;;16.70;53.50;;;;;;4982734;28;20058;-60
2022/09/25 12:36:40;;;;;;;10.27;1.17;;;16.70;54.10;;;;;;4980725;28;20054;-58
2022/09/25 12:39:25;;;;;;;9.00;1.50;;;16.80;54.00;;;;;;4980064;28;20053;-60
2022/09/25 12:41:59;;;;;;;5.35;0.90;;;16.80;53.10;;;;;;4976345;28;20517;-59
2022/09/25 12:44:36;;;;;;;5.82;1.00;;;16.90;52.80;;;;;;4976324;28;20054;-60
2022/09/25 12:47:07;;;;;;;6.57;1.30;;;16.90;51.70;;;;;;4976451;28;20051;-60
2022/09/25 12:49:40;;;;;;;6.47;1.08;;;17.10;51.40;;;;;;4981112;28;20050;-59
2022/09/25 12:52:13;;;;;;;4.28;1.23;;;17.10;51.10;;;;;;4979097;28;20058;-59
2022/09/25 12:54:49;;;;;;;8.07;1.15;;;17.10;50.50;;;;;;4979575;28;20422;-60
2022/09/25 12:57:22;;;;;;;6.72;1.08;;;17.20;50.50;;;;;;4974898;28;20054;-58
2022/09/25 12:59:54;;;;;;;5.40;1.20;;;17.20;50.60;;;;;;4979979;28;20050;-61
2022/09/25 13:02:28;;;;;;;7.00;1.27;;;17.30;50.50;;;;;;4978060;28;20058;-59
2022/09/25 13:05:01;;;;;;;;;;;17.30;50.50;;;;;;4982403;28;20438;-58
2022/09/25 13:07:34;;;;;;;8.15;1.42;;;17.40;50.80;;;;;;4978476;28;19928;-61
2022/09/25 13:10:03;;;;;;;7.95;1.20;;;17.40;49.70;;;;;;4981939;28;21142;-59
2022/09/25 13:12:35;;;;;;;5.32;1.08;;;17.40;50.00;;;;;;4979598;28;20065;-57
2022/09/25 13:15:07;;;;;;;3.35;0.88;;;17.40;49.30;;;;;;4983165;28;20050;-60
2022/09/25 13:17:35;;;;;;;4.68;1.25;;;17.40;49.00;;;;;;4984323;28;20062;-57